createdAt,value
2019-05-14T00:00:51.979Z,62.90
2019-05-14T00:03:21.912Z,62.50
2019-05-14T00:05:52.032Z,62.60
2019-05-14T00:08:23.163Z,62.80
2019-05-14T00:10:52.942Z,62.40
2019-05-14T00:13:23.298Z,62.50
2019-05-14T00:15:53.406Z,63.10
2019-05-14T00:18:23.656Z,63.00
2019-05-14T00:20:54.010Z,62.80
2019-05-14T00:23:23.892Z,62.50
2019-05-14T00:25:55.468Z,62.90
2019-05-14T00:28:25.328Z,63.00
2019-05-14T00:30:55.191Z,62.70
2019-05-14T00:33:26.160Z,62.90
2019-05-14T00:35:56.059Z,62.80
2019-05-14T00:38:26.046Z,63.40
2019-05-14T00:40:55.936Z,63.20
2019-05-14T00:43:25.733Z,63.30
2019-05-14T00:45:55.912Z,64.50
2019-05-14T00:48:28.712Z,64.30
2019-05-14T00:50:58.518Z,65.90
2019-05-14T00:53:28.455Z,66.60
2019-05-14T00:56:02.383Z,68.60
2019-05-14T00:58:32.384Z,67.70
2019-05-14T01:01:04.663Z,68.40
2019-05-14T01:03:34.435Z,67.20
2019-05-14T01:06:04.965Z,68.20
2019-05-14T01:08:34.782Z,69.90
2019-05-14T01:11:04.716Z,69.20
2019-05-14T01:13:34.900Z,69.80
2019-05-14T01:16:04.791Z,68.80
2019-05-14T01:18:34.499Z,69.50
2019-05-14T01:21:04.931Z,69.80
2019-05-14T01:23:37.799Z,70.80
2019-05-14T01:26:07.763Z,72.80
2019-05-14T01:28:38.298Z,73.80
2019-05-14T01:31:08.478Z,74.70
2019-05-14T01:33:41.065Z,75.40
2019-05-14T01:36:13.776Z,75.60
2019-05-14T01:38:43.607Z,76.20
2019-05-14T01:41:13.358Z,77.00
2019-05-14T01:43:43.355Z,77.30
2019-05-14T01:46:13.143Z,77.90
2019-05-14T01:48:46.222Z,79.00
2019-05-14T01:51:19.098Z,80.80
2019-05-14T01:53:48.955Z,81.40
2019-05-14T01:56:21.340Z,82.00
2019-05-14T01:58:52.241Z,83.00
2019-05-14T02:01:22.475Z,83.90
2019-05-14T02:03:59.038Z,85.50
2019-05-14T02:06:28.964Z,86.10
2019-05-14T02:09:02.026Z,86.90
2019-05-14T02:11:32.396Z,89.20
2019-05-14T02:14:02.575Z,90.40
2019-05-14T02:16:32.783Z,91.00
2019-05-14T02:19:05.765Z,91.90
2019-05-14T02:21:35.991Z,93.00
2019-05-14T02:24:07.151Z,94.20
2019-05-14T02:26:37.418Z,96.40
2019-05-14T02:29:07.574Z,97.90
2019-05-14T02:31:39.337Z,99.00
2019-05-14T02:34:10.223Z,99.90
2019-05-14T02:36:40.740Z,98.30
2019-05-14T02:39:10.798Z,98.10
2019-05-14T02:41:42.113Z,97.70
2019-05-14T02:44:11.900Z,98.60
2019-05-14T02:46:41.824Z,98.60
2019-05-14T02:49:12.081Z,99.20
2019-05-14T02:51:41.963Z,98.60
2019-05-14T02:54:11.878Z,99.60
2019-05-14T02:56:42.137Z,99.90
2019-05-14T02:59:13.363Z,99.90
2019-05-14T03:01:43.308Z,99.90
2019-05-14T03:04:13.510Z,99.90
2019-05-14T03:06:43.657Z,99.90
2019-05-14T03:09:13.779Z,99.90
2019-05-14T03:11:43.849Z,99.90
2019-05-14T03:14:13.715Z,99.90
2019-05-14T03:16:43.792Z,99.90
2019-05-14T03:19:13.684Z,99.90
2019-05-14T03:21:45.287Z,99.90
2019-05-14T03:24:15.359Z,99.90
2019-05-14T03:26:45.463Z,99.90
2019-05-14T03:29:15.332Z,99.90
2019-05-14T03:31:45.540Z,99.90
2019-05-14T03:34:21.546Z,99.90
2019-05-14T03:36:52.524Z,99.90
2019-05-14T03:39:20.851Z,99.90
2019-05-14T03:41:51.625Z,99.90
2019-05-14T03:44:21.497Z,99.90
2019-05-14T03:46:55.478Z,99.90
2019-05-14T03:49:24.505Z,99.90
2019-05-14T03:51:54.946Z,99.90
2019-05-14T03:54:24.939Z,99.90
2019-05-14T03:56:55.059Z,99.90
2019-05-14T03:59:25.318Z,99.90
2019-05-14T04:01:55.626Z,99.90
2019-05-14T04:04:25.928Z,99.90
2019-05-14T04:06:59.960Z,99.90
2019-05-14T04:09:31.449Z,99.90
2019-05-14T04:12:03.099Z,99.90
2019-05-14T04:14:39.839Z,99.90
2019-05-14T04:17:15.476Z,99.90
2019-05-14T04:19:45.514Z,99.90
2019-05-14T04:22:15.721Z,99.90
2019-05-14T04:24:49.833Z,99.90
2019-05-14T04:27:21.851Z,99.90
2019-05-14T04:29:53.640Z,99.90
2019-05-14T04:32:23.860Z,99.90
2019-05-14T04:34:53.673Z,99.90
2019-05-14T04:37:23.714Z,99.90
2019-05-14T04:39:54.081Z,99.90
2019-05-14T04:42:23.854Z,99.90
2019-05-14T04:44:53.639Z,99.90
2019-05-14T04:47:32.191Z,99.90
2019-05-14T04:49:59.048Z,99.90
2019-05-14T04:52:29.210Z,99.90
2019-05-14T04:54:59.672Z,99.90
2019-05-14T04:57:30.159Z,99.90
2019-05-14T05:00:00.705Z,99.90
2019-05-14T05:02:30.598Z,99.90
2019-05-14T05:05:00.311Z,99.90
2019-05-14T05:07:30.841Z,99.90
2019-05-14T05:10:01.689Z,99.90
2019-05-14T05:12:31.835Z,99.90
2019-05-14T05:15:01.855Z,99.90
2019-05-14T05:17:46.741Z,99.90
2019-05-14T05:20:03.199Z,99.90
2019-05-14T05:22:33.174Z,99.90
2019-05-14T05:25:02.954Z,99.90
2019-05-14T05:27:32.767Z,99.90
2019-05-14T05:30:02.482Z,99.90
2019-05-14T05:32:32.307Z,99.90
2019-05-14T05:35:02.407Z,99.90
2019-05-14T05:37:32.148Z,99.90
2019-05-14T05:40:01.967Z,99.90
2019-05-14T05:42:31.694Z,99.90
2019-05-14T05:45:01.934Z,99.90
2019-05-14T05:47:31.895Z,99.90
2019-05-14T05:50:02.266Z,99.90
2019-05-14T05:52:32.508Z,99.90
2019-05-14T05:55:02.902Z,99.90
2019-05-14T05:57:32.664Z,99.90
2019-05-14T06:00:02.567Z,99.90
2019-05-14T06:02:32.526Z,99.90
2019-05-14T06:05:02.507Z,99.90
2019-05-14T06:07:32.315Z,99.90
2019-05-14T06:10:02.273Z,99.90
2019-05-14T06:12:31.957Z,99.90
2019-05-14T06:15:01.770Z,99.90
2019-05-14T06:17:31.575Z,99.90
2019-05-14T06:20:01.942Z,99.90
2019-05-14T06:22:32.130Z,99.90
2019-05-14T06:25:02.034Z,99.90
2019-05-14T06:27:32.174Z,99.90
2019-05-14T06:30:02.356Z,99.90
2019-05-14T06:32:32.032Z,98.80
2019-05-14T06:35:02.051Z,98.80
2019-05-14T06:37:32.039Z,99.10
2019-05-14T06:40:02.124Z,98.00
2019-05-14T06:42:32.045Z,98.90
2019-05-14T06:45:02.153Z,99.60
2019-05-14T06:47:32.355Z,97.80
2019-05-14T06:50:02.575Z,97.50
2019-05-14T06:52:32.281Z,96.80
2019-05-14T06:55:02.240Z,97.90
2019-05-14T06:57:32.235Z,99.10
2019-05-14T07:00:02.308Z,97.20
2019-05-14T07:02:32.108Z,98.00
2019-05-14T07:05:01.830Z,99.50
2019-05-14T07:07:31.762Z,99.90
2019-05-14T07:10:01.978Z,98.80
2019-05-14T07:12:31.759Z,99.00
2019-05-14T07:15:01.519Z,98.70
2019-05-14T07:17:31.229Z,98.90
2019-05-14T07:20:01.250Z,98.90
2019-05-14T07:22:30.979Z,97.90
2019-05-14T07:25:00.669Z,97.50
2019-05-14T07:27:30.691Z,98.00
2019-05-14T07:30:00.514Z,97.70
2019-05-14T07:32:30.464Z,98.00
2019-05-14T07:35:01.075Z,98.10
2019-05-14T07:37:31.356Z,97.60
2019-05-14T07:40:01.124Z,96.20
2019-05-14T07:42:31.089Z,96.10
2019-05-14T07:45:00.781Z,98.50
2019-05-14T07:47:30.751Z,98.00
2019-05-14T07:50:00.518Z,96.40
2019-05-14T07:52:30.569Z,95.00
2019-05-14T07:55:00.341Z,95.00
2019-05-14T07:57:30.127Z,93.30
2019-05-14T08:00:00.208Z,90.00
2019-05-14T08:02:30.314Z,89.60
2019-05-14T08:05:01.250Z,82.40
2019-05-14T08:07:32.463Z,83.90
2019-05-14T08:10:02.328Z,83.20
2019-05-14T08:12:32.618Z,80.20
2019-05-14T08:15:15.461Z,77.90
2019-05-14T08:17:34.168Z,77.50
2019-05-14T08:20:04.652Z,78.90
2019-05-14T08:22:34.787Z,77.20
2019-05-14T08:25:04.999Z,77.40
2019-05-14T08:27:34.797Z,77.00
2019-05-14T08:30:05.425Z,72.80
2019-05-14T08:32:35.144Z,68.90
2019-05-14T08:35:05.098Z,70.00
2019-05-14T08:37:35.619Z,71.60
2019-05-14T08:40:05.828Z,69.50
2019-05-14T08:42:35.615Z,69.20
2019-05-14T08:45:11.551Z,67.70
2019-05-14T08:47:39.132Z,66.80
2019-05-14T08:50:09.492Z,65.10
2019-05-14T08:52:39.521Z,65.20
2019-05-14T08:55:13.795Z,63.30
2019-05-14T08:57:41.434Z,64.10
2019-05-14T09:00:14.405Z,59.60
2019-05-14T09:02:43.127Z,61.70
2019-05-14T09:05:13.035Z,60.70
2019-05-14T09:07:43.180Z,63.20
2019-05-14T09:10:13.255Z,61.00
2019-05-14T09:12:42.942Z,57.30
2019-05-14T09:15:12.931Z,56.80
2019-05-14T09:17:42.797Z,56.90
2019-05-14T09:20:12.808Z,56.50
2019-05-14T09:22:42.718Z,54.10
2019-05-14T09:25:13.097Z,54.90
2019-05-14T09:27:43.126Z,54.80
2019-05-14T09:30:13.215Z,56.10
2019-05-14T09:32:43.167Z,53.10
2019-05-14T09:35:13.076Z,52.30
2019-05-14T09:37:43.014Z,52.70
2019-05-14T09:40:13.130Z,52.60
2019-05-14T09:42:42.822Z,51.40
2019-05-14T09:45:12.796Z,52.20
2019-05-14T09:47:43.167Z,50.00
2019-05-14T09:50:18.568Z,49.40
2019-05-14T09:52:44.515Z,49.80
2019-05-14T09:55:14.283Z,47.80
2019-05-14T09:57:43.978Z,48.70
2019-05-14T10:00:14.693Z,49.20
2019-05-14T10:02:44.530Z,50.10
2019-05-14T10:05:14.649Z,50.80
2019-05-14T10:07:44.422Z,52.20
2019-05-14T10:10:14.431Z,51.80
2019-05-14T10:12:52.646Z,52.70
2019-05-14T10:15:16.384Z,54.40
2019-05-14T10:17:46.121Z,55.30
2019-05-14T10:20:32.148Z,55.20
2019-05-14T10:22:48.315Z,55.60
2019-05-14T10:25:18.529Z,55.80
2019-05-14T10:27:48.806Z,55.50
2019-05-14T10:30:18.765Z,54.50
2019-05-14T10:32:49.243Z,54.40
2019-05-14T10:35:19.388Z,53.40
2019-05-14T10:37:49.227Z,53.00
2019-05-14T10:40:19.055Z,52.90
2019-05-14T10:42:49.585Z,54.80
2019-05-14T10:45:19.911Z,55.70
2019-05-14T10:47:49.912Z,55.00
2019-05-14T10:50:19.756Z,53.30
2019-05-14T10:52:49.583Z,53.80
2019-05-14T10:55:19.650Z,54.80
2019-05-14T10:57:54.147Z,54.60
2019-05-14T11:00:21.731Z,53.10
2019-05-14T11:02:51.885Z,53.30
2019-05-14T11:05:21.887Z,54.60
2019-05-14T11:08:11.960Z,54.70
2019-05-14T11:10:42.307Z,54.20
2019-05-14T11:13:12.688Z,54.10
2019-05-14T11:15:42.567Z,55.20
2019-05-14T11:18:12.390Z,53.10
2019-05-14T11:20:42.491Z,50.00
2019-05-14T11:23:12.314Z,50.50
2019-05-14T11:25:42.379Z,51.40
2019-05-14T11:28:12.156Z,52.40
2019-05-14T11:30:42.150Z,52.90
2019-05-14T11:33:12.395Z,52.60
2019-05-14T11:35:42.483Z,53.10
2019-05-14T11:38:28.385Z,51.60
2019-05-14T11:40:43.824Z,51.60
2019-05-14T11:43:13.854Z,52.30
2019-05-14T11:45:43.720Z,52.50
2019-05-14T11:48:13.535Z,50.90
2019-05-14T11:50:43.629Z,50.50
2019-05-14T11:53:13.665Z,51.10
2019-05-14T11:55:43.571Z,50.20
2019-05-14T11:58:13.538Z,50.10
2019-05-14T12:00:43.423Z,49.90
2019-05-14T12:03:13.198Z,48.30
2019-05-14T12:05:43.383Z,49.00
2019-05-14T12:08:13.415Z,47.60
2019-05-14T12:10:43.434Z,47.60
2019-05-14T12:13:13.465Z,48.40
2019-05-14T12:15:43.498Z,47.50
2019-05-14T12:18:13.363Z,48.00
2019-05-14T12:20:43.104Z,48.20
2019-05-14T12:23:13.214Z,46.20
2019-05-14T12:25:42.922Z,45.30
2019-05-14T12:28:13.823Z,45.30
2019-05-14T12:30:43.798Z,44.80
2019-05-14T12:33:13.895Z,44.90
2019-05-14T12:35:43.591Z,46.80
2019-05-14T12:38:13.569Z,48.20
2019-05-14T12:40:43.399Z,48.80
2019-05-14T12:43:13.086Z,50.30
2019-05-14T12:45:43.036Z,50.30
2019-05-14T12:48:13.029Z,50.30
2019-05-14T12:50:42.827Z,48.90
2019-05-14T12:53:12.762Z,49.00
2019-05-14T12:55:42.615Z,48.90
2019-05-14T12:58:12.668Z,47.70
2019-05-14T13:00:42.531Z,48.50
2019-05-14T13:03:12.473Z,46.90
2019-05-14T13:05:43.331Z,45.60
2019-05-14T13:08:13.274Z,45.30
2019-05-14T13:10:43.148Z,43.90
2019-05-14T13:13:13.960Z,45.10
2019-05-14T13:15:43.932Z,45.90
2019-05-14T13:18:13.892Z,44.70
2019-05-14T13:20:43.730Z,46.30
2019-05-14T13:23:13.739Z,47.10
2019-05-14T13:25:43.458Z,47.20
2019-05-14T13:28:13.228Z,45.70
2019-05-14T13:30:43.251Z,45.70
2019-05-14T13:33:13.235Z,44.10
2019-05-14T13:35:42.927Z,44.80
2019-05-14T13:38:14.363Z,45.20
2019-05-14T13:40:44.162Z,44.30
2019-05-14T13:43:14.613Z,46.50
2019-05-14T13:45:45.049Z,45.10
2019-05-14T13:48:15.003Z,43.90
2019-05-14T13:50:44.915Z,45.30
2019-05-14T13:53:14.708Z,45.50
2019-05-14T13:55:47.666Z,46.50
2019-05-14T13:58:15.879Z,46.60
2019-05-14T14:00:51.541Z,47.30
2019-05-14T14:03:19.957Z,47.60
2019-05-14T14:05:49.987Z,46.70
2019-05-14T14:08:19.830Z,45.30
2019-05-14T14:10:53.681Z,45.00
2019-05-14T14:13:22.177Z,43.30
2019-05-14T14:15:51.870Z,45.20
2019-05-14T14:18:21.827Z,46.00
2019-05-14T14:20:52.098Z,46.50
2019-05-14T14:23:26.885Z,47.40
2019-05-14T14:25:59.335Z,43.80
2019-05-14T14:28:27.975Z,43.50
2019-05-14T14:30:57.691Z,44.50
2019-05-14T14:33:28.938Z,45.50
2019-05-14T14:35:58.923Z,45.60
2019-05-14T14:38:29.435Z,46.60
2019-05-14T14:40:59.499Z,46.90
2019-05-14T14:43:29.681Z,47.50
2019-05-14T14:45:59.597Z,47.70
2019-05-14T14:48:30.470Z,49.00
2019-05-14T14:51:00.626Z,46.20
2019-05-14T14:53:42.976Z,44.20
2019-05-14T14:56:01.943Z,43.20
2019-05-14T14:58:31.856Z,43.50
2019-05-14T15:01:02.035Z,44.70
2019-05-14T15:03:32.125Z,45.30
2019-05-14T15:06:02.011Z,46.30
2019-05-14T15:08:31.834Z,46.30
2019-05-14T15:11:02.164Z,47.30
2019-05-14T15:13:32.126Z,47.80
2019-05-14T15:16:01.954Z,48.10
2019-05-14T15:18:32.174Z,47.90
2019-05-14T15:21:01.880Z,47.20
2019-05-14T15:23:31.977Z,47.50
2019-05-14T15:26:02.132Z,48.40
2019-05-14T15:28:32.128Z,48.50
2019-05-14T15:31:02.197Z,48.40
2019-05-14T15:33:32.219Z,47.50
2019-05-14T15:36:02.008Z,46.90
2019-05-14T15:38:31.870Z,46.90
2019-05-14T15:41:02.211Z,47.20
2019-05-14T15:43:32.030Z,47.50
2019-05-14T15:46:01.805Z,46.90
2019-05-14T15:48:31.533Z,46.20
2019-05-14T15:51:01.775Z,46.70
2019-05-14T15:53:31.477Z,47.00
2019-05-14T15:56:01.764Z,47.60
2019-05-14T15:58:31.738Z,47.40
2019-05-14T16:01:01.817Z,48.50
2019-05-14T16:03:31.618Z,48.00
2019-05-14T16:06:01.844Z,48.80
2019-05-14T16:08:31.907Z,48.90
2019-05-14T16:11:05.405Z,49.30
2019-05-14T16:13:33.366Z,49.30
2019-05-14T16:16:03.097Z,49.40
2019-05-14T16:18:33.038Z,49.70
2019-05-14T16:21:02.872Z,49.70
2019-05-14T16:23:32.977Z,50.00
2019-05-14T16:26:03.222Z,50.40
2019-05-14T16:28:33.257Z,50.60
2019-05-14T16:31:03.222Z,51.60
2019-05-14T16:33:33.371Z,51.80
2019-05-14T16:36:03.143Z,52.10
2019-05-14T16:38:33.232Z,52.10
2019-05-14T16:41:03.013Z,52.20
2019-05-14T16:43:32.873Z,50.20
2019-05-14T16:46:02.669Z,50.30
2019-05-14T16:48:32.546Z,49.70
2019-05-14T16:51:02.255Z,50.20
2019-05-14T16:53:32.082Z,49.10
2019-05-14T16:56:02.004Z,49.00
2019-05-14T16:58:31.820Z,49.50
2019-05-14T17:01:01.791Z,50.00
2019-05-14T17:03:31.928Z,50.30
2019-05-14T17:06:01.619Z,50.80
2019-05-14T17:08:31.520Z,50.30
2019-05-14T17:11:01.566Z,50.10
2019-05-14T17:13:31.902Z,51.30
2019-05-14T17:16:01.752Z,52.10
2019-05-14T17:18:31.843Z,52.60
2019-05-14T17:21:01.633Z,52.90
2019-05-14T17:23:32.175Z,53.20
2019-05-14T17:26:01.950Z,53.40
2019-05-14T17:28:31.682Z,53.00
2019-05-14T17:31:01.386Z,53.20
2019-05-14T17:33:31.281Z,52.80
2019-05-14T17:36:01.289Z,53.10
2019-05-14T17:38:31.202Z,53.40
2019-05-14T17:41:00.992Z,54.30
2019-05-14T17:43:30.721Z,53.70
2019-05-14T17:46:00.689Z,54.20
2019-05-14T17:48:30.470Z,54.50
2019-05-14T17:51:00.154Z,54.00
2019-05-14T17:53:29.914Z,53.70
2019-05-14T17:56:00.039Z,53.80
2019-05-14T17:58:29.843Z,54.50
2019-05-14T18:00:59.671Z,55.40
2019-05-14T18:03:29.935Z,54.80
2019-05-14T18:05:59.628Z,54.70
2019-05-14T18:08:30.137Z,54.50
2019-05-14T18:11:01.758Z,55.20
2019-05-14T18:13:31.943Z,55.50
2019-05-14T18:16:01.651Z,56.50
2019-05-14T18:18:31.903Z,57.10
2019-05-14T18:21:02.054Z,56.70
2019-05-14T18:23:32.271Z,57.20
2019-05-14T18:26:08.253Z,57.40
2019-05-14T18:28:33.928Z,57.20
2019-05-14T18:31:03.973Z,58.00
2019-05-14T18:33:33.842Z,58.40
2019-05-14T18:36:03.774Z,58.60
2019-05-14T18:38:34.376Z,58.70
2019-05-14T18:41:04.199Z,59.00
2019-05-14T18:43:33.984Z,59.50
2019-05-14T18:46:03.811Z,59.90
2019-05-14T18:48:33.546Z,60.20
2019-05-14T18:51:03.403Z,59.80
2019-05-14T18:53:33.171Z,60.10
2019-05-14T18:56:16.569Z,61.00
2019-05-14T18:58:34.577Z,61.00
2019-05-14T19:01:04.454Z,60.90
2019-05-14T19:03:34.435Z,60.20
2019-05-14T19:06:04.459Z,59.40
2019-05-14T19:08:34.493Z,59.00
2019-05-14T19:11:04.607Z,59.00
2019-05-14T19:13:34.304Z,59.50
2019-05-14T19:16:04.265Z,59.60
2019-05-14T19:18:34.475Z,59.40
2019-05-14T19:21:04.694Z,60.00
2019-05-14T19:23:34.498Z,60.40
2019-05-14T19:26:04.464Z,61.00
2019-05-14T19:28:34.267Z,61.70
2019-05-14T19:31:04.151Z,62.30
2019-05-14T19:33:34.454Z,61.80
2019-05-14T19:36:04.282Z,62.10
2019-05-14T19:38:34.162Z,62.20
2019-05-14T19:41:04.008Z,61.80
2019-05-14T19:43:34.361Z,62.40
2019-05-14T19:46:05.070Z,63.00
2019-05-14T19:48:35.483Z,62.90
2019-05-14T19:51:08.057Z,63.00
2019-05-14T19:53:39.223Z,62.20
2019-05-14T19:56:09.498Z,62.50
2019-05-14T19:58:39.291Z,63.70
2019-05-14T20:01:09.341Z,63.40
2019-05-14T20:03:39.317Z,65.40
2019-05-14T20:06:09.373Z,64.70
2019-05-14T20:08:39.174Z,64.70
2019-05-14T20:11:09.090Z,65.50
2019-05-14T20:13:39.402Z,66.00
2019-05-14T20:16:09.366Z,66.30
2019-05-14T20:18:39.895Z,67.00
2019-05-14T20:21:09.879Z,67.30
2019-05-14T20:23:39.623Z,67.70
2019-05-14T20:26:09.836Z,68.40
2019-05-14T20:28:39.628Z,69.80
2019-05-14T20:31:10.704Z,70.90
2019-05-14T20:33:40.667Z,70.90
2019-05-14T20:36:10.498Z,71.20
2019-05-14T20:38:40.359Z,71.40
2019-05-14T20:41:10.218Z,71.90
2019-05-14T20:43:40.070Z,72.40
2019-05-14T20:46:10.238Z,73.20
2019-05-14T20:48:40.320Z,74.10
2019-05-14T20:51:10.159Z,74.60
2019-05-14T20:53:40.238Z,74.30
2019-05-14T20:56:10.411Z,74.50
2019-05-14T20:58:40.175Z,75.20
2019-05-14T21:01:11.397Z,75.50
2019-05-14T21:03:44.014Z,75.30
2019-05-14T21:06:13.264Z,75.50
2019-05-14T21:08:42.966Z,75.40
2019-05-14T21:11:12.831Z,75.30
2019-05-14T21:13:42.935Z,75.80
2019-05-14T21:16:14.018Z,76.20
2019-05-14T21:18:43.742Z,76.80
2019-05-14T21:21:13.558Z,76.80
2019-05-14T21:23:43.306Z,77.00
2019-05-14T21:26:13.015Z,77.80
2019-05-14T21:28:42.782Z,78.60
2019-05-14T21:31:12.926Z,79.40
2019-05-14T21:33:42.821Z,79.90
2019-05-14T21:36:12.790Z,80.70
2019-05-14T21:38:42.507Z,81.00
2019-05-14T21:41:12.470Z,81.40
2019-05-14T21:43:42.503Z,82.30
2019-05-14T21:46:12.423Z,83.20
2019-05-14T21:48:42.793Z,84.00
2019-05-14T21:51:12.646Z,83.90
2019-05-14T21:53:42.482Z,84.70
2019-05-14T21:56:18.524Z,85.50
2019-05-14T21:58:48.126Z,86.00
2019-05-14T22:01:20.463Z,86.50
2019-05-14T22:03:51.965Z,87.10
2019-05-14T22:06:21.791Z,87.60
2019-05-14T22:08:51.946Z,88.50
2019-05-14T22:11:21.849Z,88.80
2019-05-14T22:13:51.845Z,89.10
2019-05-14T22:16:21.926Z,90.10
2019-05-14T22:18:52.834Z,90.70
2019-05-14T22:21:23.038Z,90.90
2019-05-14T22:23:52.894Z,90.90
2019-05-14T22:26:25.507Z,91.30
2019-05-14T22:28:55.526Z,91.40
2019-05-14T22:31:25.473Z,91.80
2019-05-14T22:33:55.565Z,91.90
2019-05-14T22:36:29.346Z,92.20
2019-05-14T22:38:59.381Z,93.20
2019-05-14T22:41:30.151Z,93.60
2019-05-14T22:44:00.164Z,94.40
2019-05-14T22:46:31.073Z,94.90
2019-05-14T22:49:01.022Z,96.00
2019-05-14T22:51:33.188Z,97.10
2019-05-14T22:54:02.817Z,98.20
2019-05-14T22:56:33.962Z,98.80
2019-05-14T22:59:03.734Z,99.30
2019-05-14T23:01:33.727Z,99.90
2019-05-14T23:04:03.971Z,99.90
2019-05-14T23:06:33.756Z,99.90
2019-05-14T23:09:04.768Z,99.90
2019-05-14T23:11:34.808Z,99.90
2019-05-14T23:14:04.923Z,99.90
2019-05-14T23:16:39.386Z,99.90
2019-05-14T23:19:07.989Z,99.90
2019-05-14T23:21:39.136Z,99.90
2019-05-14T23:24:14.859Z,99.90
2019-05-14T23:26:44.893Z,99.90
2019-05-14T23:29:14.679Z,99.90
2019-05-14T23:31:44.441Z,99.90
2019-05-14T23:34:16.057Z,99.90
2019-05-14T23:36:48.165Z,99.90
2019-05-14T23:39:17.542Z,99.90
2019-05-14T23:41:48.743Z,99.90
2019-05-14T23:44:19.214Z,99.90
2019-05-14T23:46:48.998Z,99.90
2019-05-14T23:49:18.720Z,99.90
2019-05-14T23:51:48.506Z,99.90
2019-05-14T23:54:18.366Z,99.90
2019-05-14T23:56:48.899Z,99.90
2019-05-14T23:59:19.027Z,99.90
